Hovedside
METAR-TAF:

METAR-TAF

Lufthavner :

Esbjerg lufthavn

Esbjerg, Danmark

breddegrad: 55-32N, lengdegrad: 008-34E, høyde over havet: 30 m

Gjeldene værobservasjon

Denne rapporten ble laget for 34 minutter siden, klokken 23:20 UTC
Vind 6 kt fra Nord-nordøst
Temperatur 1°C
Luftfuktighet 93%
Trykk 1028 hPa
Sikt 10 km eller mer

METAR: EKEB 132320Z AUTO 03006KT 9999 OVC044/// 01/00 Q1028

Tid: 00:54 (23:54 UTC)

Varsel

Denne rapporten ble laget for 58 minutter siden, klokken 22:56 UTC
Varsel gyldig fra 13. klokken 22 UTC til 14. klokken 01 UTC
Vind 8 kt fra Nordøst
Sikt 10 km eller mer
Brutte skyer i en høyde av 3500 ft
Sannsynlighet 40%
fra 13. klokken 22 UTC til 14. klokken 01 UTC
Brutte skyer i en høyde av 1200 ft

TAF: EKEB 132256Z 1322/1401 05008KT 9999 BKN035 PROB40 1322/1401 BKN012

Værobservasjoner og værvarsel for over 4000 flyplasser (METAR- og TAF-rapporter).

Tilgjengelige stasjoner er representert av de røde og gule prikkene på kartet.

Hold musepekeren over prikken for å se navnet på stasjonen.

Klikk så for å se værobservasjoner og -varsler.

For å forandre kartet kan du klikke på den grønne knappen med svart kryss for å zoome inn, på den grønne knappen med strek for å zoome ut, eller på de grønne pilene for å se tilstøtende kart.


METAR-TAF: